Time;durP1;ratioP1;P1;durP2;ratioP2;P2;SDS_P1;SDS_P2;PMS_P1;PMS_P2;Temp;Humidity;BMP_temperature;BMP_pressure;BME280_temperature;BME280_humidity;BME280_pressure;Samples;Min_cycle;Max_cycle;Signal;HPM_P1;HPM_P2
2021/12/21 00:00:22;;;;;;;64.00;22.15;;;;;;;-0.02;100.00;102420.31;5067504;28;20485;-75
2021/12/21 00:02:51;;;;;;;70.80;22.98;;;;;;;-0.02;100.00;102416.75;5076266;28;20073;-74
2021/12/21 00:05:21;;;;;;;66.82;23.23;;;;;;;-0.03;100.00;102410.50;5081319;28;20052;-74
2021/12/21 00:07:51;;;;;;;70.47;23.58;;;;;;;-0.04;100.00;102416.22;5078854;28;20131;-74
2021/12/21 00:10:20;;;;;;;71.10;22.10;;;;;;;-0.03;100.00;102412.44;5087632;28;20058;-74
2021/12/21 00:13:02;;;;;;;70.38;22.77;;;;;;;-0.05;100.00;102404.56;5073089;28;20040;-74
2021/12/21 00:15:48;;;;;;;78.40;23.83;;;;;;;-0.09;100.00;102411.63;5067346;28;20059;-74
2021/12/21 00:26:06;;;;;;;75.97;22.33;;;;;;;-0.13;100.00;102404.34;5076157;28;20048;-74
2021/12/21 00:28:49;;;;;;;70.78;21.73;;;;;;;-0.15;100.00;102409.25;5080059;28;20072;-73
2021/12/21 00:31:16;;;;;;;67.28;21.70;;;;;;;-0.17;100.00;102406.81;5076088;28;20080;-72
2021/12/21 00:33:45;;;;;;;67.07;22.05;;;;;;;-0.22;100.00;102398.72;5069549;28;20481;-74
2021/12/21 00:36:15;;;;;;;71.38;21.95;;;;;;;-0.22;100.00;102401.44;5076896;28;20487;-75
2021/12/21 00:38:42;;;;;;;76.63;24.30;;;;;;;-0.21;100.00;102397.59;5080190;28;20048;-74
2021/12/21 00:41:09;;;;;;;66.25;21.85;;;;;;;-0.17;100.00;102406.00;5077221;28;20146;-74
2021/12/21 00:43:36;;;;;;;72.07;22.33;;;;;;;-0.17;100.00;102401.38;5083160;28;20177;-73
2021/12/21 00:46:02;;;;;;;73.55;21.90;;;;;;;-0.18;100.00;102396.22;5073273;28;20139;-73
2021/12/21 00:48:31;;;;;;;72.15;21.48;;;;;;;-0.25;100.00;102393.00;5078240;28;20146;-76
2021/12/21 00:51:00;;;;;;;69.10;21.95;;;;;;;-0.24;100.00;102394.63;5067581;28;20045;-73
2021/12/21 00:53:28;;;;;;;63.25;21.65;;;;;;;-0.23;100.00;102396.28;5070929;28;20064;-73
2021/12/21 00:55:55;;;;;;;62.50;20.48;;;;;;;-0.23;100.00;102402.50;5073176;28;20052;-73
2021/12/21 00:58:21;;;;;;;68.75;22.20;;;;;;;-0.29;100.00;102395.50;5071781;28;20135;-73
2021/12/21 01:00:48;;;;;;;63.95;21.40;;;;;;;-0.28;100.00;102388.97;5067848;28;20134;-73
2021/12/21 01:03:17;;;;;;;66.72;20.85;;;;;;;-0.28;100.00;102388.97;5077763;28;20044;-73
2021/12/21 01:08:21;;;;;;;62.90;22.13;;;;;;;-0.25;100.00;102387.56;5071081;28;20054;-75
2021/12/21 01:16:11;;;;;;;;;;;;;;;;;;;;;
2021/12/21 01:18:23;;;;;;;78.55;21.33;;;;;;;-0.31;100.00;102383.25;5071975;28;20052;-76
2021/12/21 01:21:16;;;;;;;;;;;;;;;;;;;;;
2021/12/21 01:23:50;;;;;;;78.05;22.55;;;;;;;-0.29;100.00;102386.53;5073857;28;20044;-73
2021/12/21 01:29:37;;;;;;;70.57;21.70;;;;;;;-0.28;100.00;102382.69;5077377;28;20123;-74
2021/12/21 01:31:52;;;;;;;82.47;23.70;;;;;;;-0.27;100.00;102384.34;5063620;28;20056;-73
2021/12/21 01:36:59;;;;;;;69.45;21.80;;;;;;;-0.33;100.00;102375.38;5070041;28;20512;-74
2021/12/21 01:39:53;;;;;;;;;;;;;;;-0.34;100.00;102375.66;5069058;28;20450;-73
2021/12/21 01:49:57;;;;;;;94.75;23.33;;;;;;;-0.39;100.00;102379.28;5070268;28;20524;-75
2021/12/21 01:52:27;;;;;;;77.22;21.92;;;;;;;-0.38;100.00;102371.91;5068966;28;20696;-74
2021/12/21 01:54:54;;;;;;;99.20;22.13;;;;;;;-0.38;100.00;102372.72;5071124;28;20789;-73
2021/12/21 01:57:21;;;;;;;59.90;20.00;;;;;;;-0.38;100.00;102371.91;5081505;28;20500;-72
2021/12/21 01:59:48;;;;;;;92.47;23.48;;;;;;;-0.39;100.00;102365.66;5080951;28;20079;-73
2021/12/21 02:02:18;;;;;;;67.78;21.92;;;;;;;-0.41;100.00;102369.75;5076806;28;20071;-73
2021/12/21 02:04:45;;;;;;;77.57;21.65;;;;;;;-0.41;100.00;102370.56;5081246;28;20059;-73
2021/12/21 02:07:13;;;;;;;74.05;19.40;;;;;;;-0.46;100.00;102370.63;5075767;28;20514;-74
2021/12/21 02:09:40;;;;;;;68.15;20.75;;;;;;;-0.46;100.00;102365.19;5073488;28;20630;-74
2021/12/21 02:12:16;;;;;;;73.97;20.42;;;;;;;-0.49;100.00;102367.66;5083782;28;20048;-73
2021/12/21 02:14:52;;;;;;;62.28;19.63;;;;;;;-0.51;100.00;102367.09;5077280;28;20143;-73
2021/12/21 02:19:56;;;;;;;68.28;20.83;;;;;;;-0.52;100.00;102371.75;5081052;28;20186;-73
2021/12/21 02:22:26;;;;;;;67.88;20.58;;;;;;;-0.52;100.00;102362.78;5082771;28;20738;-73
2021/12/21 02:27:54;;;;;;;68.10;20.85;;;;;;;-0.53;100.00;102370.13;5065952;28;20497;-73
2021/12/21 02:30:20;;;;;;;66.38;19.88;;;;;;;-0.51;100.00;102376.09;5072212;28;20044;-74
2021/12/21 02:32:48;;;;;;;70.13;18.75;;;;;;;-0.53;100.00;102364.69;5075402;28;20063;-74
2021/12/21 02:35:15;;;;;;;57.65;19.10;;;;;;;-0.59;100.00;102356.84;5069414;28;20091;-73
2021/12/21 02:37:41;;;;;;;59.63;18.30;;;;;;;-0.57;100.00;102360.09;5086023;28;20040;-74
2021/12/21 02:40:09;;;;;;;66.13;21.45;;;;;;;-0.57;100.00;102365.53;5075791;28;20470;-73
2021/12/21 02:42:36;;;;;;;48.60;17.10;;;;;;;-0.55;100.00;102366.06;5078869;28;20080;-73
2021/12/21 02:45:05;;;;;;;61.70;21.48;;;;;;;-0.54;100.00;102362.25;5083924;28;20511;-72
2021/12/21 02:47:31;;;;;;;70.25;21.80;;;;;;;-0.54;100.00;102356.81;5072644;28;20045;-74
2021/12/21 02:49:59;;;;;;;72.10;18.20;;;;;;;-0.58;100.00;102359.28;5081367;28;20063;-74
2021/12/21 02:52:25;;;;;;;85.32;22.13;;;;;;;-0.57;100.00;102357.38;5072785;28;20051;-74
2021/12/21 02:54:52;;;;;;;76.22;20.42;;;;;;;-0.59;100.00;102360.38;5071365;28;20052;-73
2021/12/21 02:57:18;;;;;;;75.93;23.65;;;;;;;-0.60;100.00;102352.50;5069675;28;20370;-73
2021/12/21 02:59:45;;;;;;;72.32;20.73;;;;;;;-0.63;100.00;102353.91;5068207;28;20049;-74
2021/12/21 03:02:11;;;;;;;58.78;17.90;;;;;;;-0.66;100.00;102346.31;5072918;28;20044;-75
2021/12/21 03:04:43;;;;;;;64.75;20.15;;;;;;;-0.56;100.00;102350.84;5080663;28;20132;-74
2021/12/21 03:07:44;;;;;;;64.60;18.48;;;;;;;-0.54;100.00;102354.09;5084715;28;20052;-72
2021/12/21 03:10:09;;;;;;;68.25;18.77;;;;;;;-0.53;100.00;102353.81;5069481;28;20571;-74
2021/12/21 03:15:25;;;;;;;58.67;17.50;;;;;;;-0.57;100.00;102349.22;5074595;28;20097;-73
2021/12/21 03:17:53;;;;;;;68.90;19.98;;;;;;;-0.62;100.00;102341.09;5082443;28;20559;-75
2021/12/21 03:20:20;;;;;;;67.88;20.63;;;;;;;-0.65;100.00;102341.66;5075961;28;20052;-76
2021/12/21 03:22:47;;;;;;;64.65;17.17;;;;;;;-0.64;100.00;102340.59;5073112;28;20072;-74
2021/12/21 03:25:15;;;;;;;93.55;22.92;;;;;;;-0.67;100.00;102344.66;5075640;28;20077;-74
2021/12/21 03:27:41;;;;;;;63.35;18.38;;;;;;;-0.66;100.00;102348.19;5072892;28;20064;-74
2021/12/21 03:30:11;;;;;;;56.97;17.83;;;;;;;-0.69;100.00;102341.44;5080154;28;20052;-74
2021/12/21 03:32:38;;;;;;;61.60;19.95;;;;;;;-0.66;100.00;102348.19;5068330;28;20468;-74
2021/12/21 03:35:06;;;;;;;69.88;19.02;;;;;;;-0.68;100.00;102343.03;5072077;28;20462;-75
2021/12/21 03:37:33;;;;;;;61.33;18.77;;;;;;;-0.73;100.00;102340.38;5069835;28;20059;-74
2021/12/21 03:40:02;;;;;;;64.68;19.65;;;;;;;-0.76;100.00;102340.13;5074888;28;20056;-73
2021/12/21 03:42:29;;;;;;;73.68;19.38;;;;;;;-0.75;100.00;102339.84;5073754;28;20067;-75
2021/12/21 03:44:56;;;;;;;66.18;19.38;;;;;;;-0.73;100.00;102343.09;5076149;28;20044;-73
2021/12/21 03:47:23;;;;;;;60.85;19.08;;;;;;;-0.73;100.00;102337.66;5072417;28;20128;-73
2021/12/21 03:49:57;;;;;;;64.80;18.25;;;;;;;-0.74;100.00;102336.00;5078560;28;20519;-73
2021/12/21 03:52:25;;;;;;;61.30;17.25;;;;;;;-0.69;100.00;102336.00;5068226;28;20056;-71
2021/12/21 03:55:01;;;;;;;50.13;17.45;;;;;;;-0.69;100.00;102346.03;5073780;28;20101;-72
2021/12/21 03:57:28;;;;;;;53.47;17.65;;;;;;;-0.71;100.00;102351.75;5066991;28;20130;-74
2021/12/21 03:59:56;;;;;;;52.70;18.95;;;;;;;-0.71;100.00;102351.75;5078406;28;20062;-73
2021/12/21 04:02:25;;;;;;;46.53;18.13;;;;;;;-0.71;100.00;102349.03;5075084;28;20048;-73
2021/12/21 04:04:53;;;;;;;59.17;18.27;;;;;;;-0.75;100.00;102345.28;5076407;28;20101;-72
2021/12/21 04:07:20;;;;;;;64.95;17.67;;;;;;;-0.73;100.00;102340.38;5073476;28;20048;-74
2021/12/21 04:09:48;;;;;;;68.15;19.85;;;;;;;-0.72;100.00;102343.88;5075142;28;20131;-74
2021/12/21 04:12:15;;;;;;;70.40;20.70;;;;;;;-0.75;100.00;102333.56;5066555;28;20122;-73
2021/12/21 04:14:42;;;;;;;73.32;20.73;;;;;;;-0.70;100.00;102339.81;5069598;28;20124;-73
2021/12/21 04:17:20;;;;;;;65.40;21.02;;;;;;;-0.67;100.00;102341.94;5071501;28;20812;-74
2021/12/21 04:19:47;;;;;;;74.28;22.33;;;;;;;-0.72;100.00;102339.28;5078109;28;20513;-72
2021/12/21 04:22:15;;;;;;;72.80;21.60;;;;;;;-0.72;100.00;102339.28;5073271;28;20047;-75
2021/12/21 04:24:41;;;;;;;85.53;24.70;;;;;;;-0.68;100.00;102334.06;5082458;28;20055;-73
2021/12/21 04:27:13;;;;;;;68.80;22.15;;;;;;;-0.71;100.00;102330.00;5069509;28;20112;-76
2021/12/21 04:29:40;;;;;;;73.82;23.38;;;;;;;-0.67;100.00;102336.50;5079490;28;20137;-73
2021/12/21 04:32:07;;;;;;;66.35;19.60;;;;;;;-0.65;100.00;102337.03;5071715;28;20052;-72
2021/12/21 04:34:34;;;;;;;67.90;20.63;;;;;;;-0.68;100.00;102334.88;5067880;28;20444;-73
2021/12/21 04:37:01;;;;;;;56.80;19.17;;;;;;;-0.69;100.00;102344.16;5069221;28;20135;-74
2021/12/21 04:41:59;;;;;;;89.53;24.45;;;;;;;-0.80;100.00;102333.63;5066168;28;20126;-74
2021/12/21 04:44:30;;;;;;;72.13;21.75;;;;;;;-0.77;100.00;102342.00;5067211;28;20546;-74
2021/12/21 04:46:56;;;;;;;68.55;21.63;;;;;;;-0.75;100.00;102334.41;5068127;28;20053;-71
2021/12/21 04:49:23;;;;;;;69.40;21.38;;;;;;;-0.72;100.00;102331.13;5066235;28;20087;-72
2021/12/21 04:51:50;;;;;;;88.38;23.77;;;;;;;-0.68;100.00;102328.63;5066175;28;20055;-73
2021/12/21 04:54:16;;;;;;;73.00;19.83;;;;;;;-0.73;100.00;102313.19;5067351;28;20477;-73
2021/12/21 04:56:43;;;;;;;82.45;22.67;;;;;;;-0.67;100.00;102325.63;5068078;28;20084;-73
2021/12/21 04:59:10;;;;;;;76.03;21.45;;;;;;;-0.64;100.00;102325.06;5067464;28;20048;-74
2021/12/21 05:01:41;;;;;;;69.70;21.80;;;;;;;-0.72;100.00;102322.97;5067662;28;20480;-73
2021/12/21 05:04:07;;;;;;;66.78;19.25;;;;;;;-0.73;100.00;102324.06;5072841;28;20090;-73
2021/12/21 05:06:34;;;;;;;112.50;25.42;;;;;;;-0.73;100.00;102320.53;5068742;28;20087;-74
2021/12/21 05:09:09;;;;;;;77.47;23.27;;;;;;;-0.70;100.00;102318.06;5067955;28;20212;-73
2021/12/21 05:11:36;;;;;;;67.93;21.70;;;;;;;-0.70;100.00;102328.94;5066669;28;20642;-74
2021/12/21 05:14:06;;;;;;;71.68;21.67;;;;;;;-0.71;100.00;102326.50;5066233;28;20052;-75
2021/12/21 05:16:33;;;;;;;71.13;21.85;;;;;;;-0.70;100.00;102328.13;5068242;28;20053;-72
2021/12/21 05:19:00;;;;;;;74.45;21.30;;;;;;;-0.70;100.00;102323.50;5071405;28;20048;-73
2021/12/21 05:21:27;;;;;;;63.88;21.10;;;;;;;-0.67;100.00;102324.84;5074745;28;20063;-73
2021/12/21 05:23:54;;;;;;;73.50;20.75;;;;;;;-0.69;100.00;102330.56;5083336;28;20619;-73
2021/12/21 05:26:20;;;;;;;60.42;19.85;;;;;;;-0.69;100.00;102327.84;5075385;28;20130;-72
2021/12/21 05:28:47;;;;;;;70.40;21.70;;;;;;;-0.68;100.00;102328.63;5081189;28;20126;-74
2021/12/21 05:31:13;;;;;;;74.93;21.65;;;;;;;-0.67;100.00;102320.19;5090066;28;20054;-73
2021/12/21 05:33:40;;;;;;;84.82;24.23;;;;;;;-0.68;100.00;102323.19;5071107;28;20048;-73
2021/12/21 05:36:07;;;;;;;86.75;24.13;;;;;;;-0.65;100.00;102320.72;5087240;28;20048;-73
2021/12/21 05:38:35;;;;;;;92.38;25.23;;;;;;;-0.66;100.00;102321.84;5083035;28;20162;-75
2021/12/21 05:41:05;;;;;;;90.68;23.50;;;;;;;-0.65;100.00;102334.31;5073205;28;20139;-73
2021/12/21 05:43:32;;;;;;;127.00;28.42;;;;;;;-0.70;100.00;102337.09;5071448;28;20048;-73
2021/12/21 05:45:59;;;;;;;137.70;28.02;;;;;;;-0.75;100.00;102339.84;5071756;28;20090;-73
2021/12/21 05:48:26;;;;;;;90.70;26.20;;;;;;;-0.76;100.00;102338.22;5075255;28;20505;-75
2021/12/21 05:50:53;;;;;;;85.97;26.85;;;;;;;-0.80;100.00;102337.16;5072041;28;20195;-73
2021/12/21 05:53:19;;;;;;;115.65;27.67;;;;;;;-0.83;100.00;102337.72;5073640;28;20703;-73
2021/12/21 05:55:46;;;;;;;86.28;24.55;;;;;;;-0.80;100.00;102334.44;5076543;28;20052;-73
2021/12/21 05:58:12;;;;;;;85.22;27.15;;;;;;;-0.81;100.00;102332.00;5090797;28;20044;-74
2021/12/21 06:00:39;;;;;;;83.88;25.15;;;;;;;-0.78;100.00;102340.41;5085752;28;20757;-74
2021/12/21 06:03:06;;;;;;;88.53;26.50;;;;;;;-0.75;100.00;102345.28;5082221;28;20044;-73
2021/12/21 06:05:32;;;;;;;90.55;26.75;;;;;;;-0.74;100.00;102336.00;5074988;28;20048;-75
2021/12/21 06:07:59;;;;;;;70.90;22.42;;;;;;;-0.76;100.00;102332.78;5080106;28;20135;-75
2021/12/21 06:10:31;;;;;;;74.47;24.90;;;;;;;-0.74;100.00;102336.00;5083818;28;20112;-73
2021/12/21 06:16:09;;;;;;;67.20;22.58;;;;;;;-0.81;100.00;102334.72;5071126;28;20053;-73
2021/12/21 06:26:34;;;;;;;78.28;27.08;;;;;;;-0.77;100.00;102347.44;5070324;28;20556;-75
2021/12/21 06:29:00;;;;;;;83.70;27.27;;;;;;;-0.78;100.00;102351.28;5069447;28;20071;-74
2021/12/21 06:31:28;;;;;;;89.65;27.42;;;;;;;-0.78;100.00;102345.00;5069382;28;20794;-74
2021/12/21 06:33:54;;;;;;;83.10;25.92;;;;;;;-0.78;100.00;102345.84;5070159;28;20123;-74
2021/12/21 06:36:22;;;;;;;93.13;26.55;;;;;;;-0.77;100.00;102352.09;5073764;28;20556;-73
2021/12/21 06:38:48;;;;;;;98.30;29.42;;;;;;;-0.80;100.00;102350.75;5084182;28;20139;-76
2021/12/21 06:41:15;;;;;;;78.75;25.45;;;;;;;-0.81;100.00;102345.59;5080851;28;20075;-72
2021/12/21 06:43:42;;;;;;;80.28;25.23;;;;;;;-0.83;100.00;102351.31;5069573;28;20053;-73
2021/12/21 06:46:19;;;;;;;77.40;21.70;;;;;;;-0.89;100.00;102348.91;5071624;28;20511;-73
2021/12/21 06:51:44;;;;;;;85.85;28.45;;;;;;;-0.88;100.00;102345.91;5076697;28;20053;-73
2021/12/21 06:54:10;;;;;;;86.85;28.25;;;;;;;-0.88;100.00;102354.06;5080149;28;20131;-73
2021/12/21 06:56:37;;;;;;;85.90;27.35;;;;;;;-0.85;100.00;102348.06;5075566;28;20086;-72
2021/12/21 06:59:03;;;;;;;86.68;27.63;;;;;;;-0.85;100.00;102339.09;5077434;28;20543;-72
2021/12/21 07:01:33;;;;;;;88.97;26.80;;;;;;;-0.86;100.00;102351.88;5075373;28;20505;-73
2021/12/21 07:04:00;;;;;;;98.63;28.60;;;;;;;-0.86;100.00;102343.72;5077162;28;20055;-76
2021/12/21 07:06:27;;;;;;;96.85;29.33;;;;;;;-0.93;100.00;102343.22;5074748;28;20390;-73
2021/12/21 07:09:06;;;;;;;108.47;29.65;;;;;;;-0.98;100.00;102340.53;5080000;28;20198;-73
2021/12/21 07:19:32;;;;;;;;;;;;;;;-1.01;100.00;102351.94;5074796;28;20055;-74
2021/12/21 07:21:59;;;;;;;91.32;25.33;;;;;;;-1.05;100.00;102342.75;5073127;28;19926;-73
2021/12/21 07:24:26;;;;;;;93.43;27.52;;;;;;;-1.05;100.00;102341.94;5084722;28;20048;-72
2021/12/21 07:26:52;;;;;;;91.70;26.77;;;;;;;-1.04;100.00;102340.84;5073404;28;20083;-72
2021/12/21 07:29:19;;;;;;;104.90;29.50;;;;;;;-1.04;100.00;102340.84;5078920;28;20062;-75
2021/12/21 07:31:46;;;;;;;118.82;29.95;;;;;;;-1.11;100.00;102343.06;5072145;28;20164;-72
2021/12/21 07:34:13;;;;;;;120.22;30.23;;;;;;;-1.17;100.00;102333.31;5082529;28;20095;-72
2021/12/21 07:36:42;;;;;;;109.93;29.85;;;;;;;-1.18;100.00;102337.13;5070310;28;20513;-72
2021/12/21 07:39:13;;;;;;;104.75;31.02;;;;;;;-1.14;100.00;102341.72;5080803;28;20172;-72
2021/12/21 07:41:41;;;;;;;109.65;30.58;;;;;;;-1.11;100.00;102352.00;5074309;28;20452;-73
2021/12/21 07:44:08;;;;;;;112.20;30.52;;;;;;;-1.07;100.00;102355.00;5069324;28;20053;-73
2021/12/21 07:46:35;;;;;;;101.78;30.40;;;;;;;-1.05;100.00;102350.91;5084872;28;20062;-74
2021/12/21 07:49:02;;;;;;;122.18;33.75;;;;;;;-1.05;100.00;102352.81;5074779;28;20044;-72
2021/12/21 07:51:30;;;;;;;117.93;34.28;;;;;;;-1.03;100.00;102354.16;5086021;28;20159;-74
2021/12/21 07:53:57;;;;;;;111.10;30.23;;;;;;;-0.97;100.00;102353.03;5069426;28;20452;-70
2021/12/21 07:56:23;;;;;;;106.05;33.17;;;;;;;-0.92;100.00;102366.59;5068709;28;21153;-73
2021/12/21 07:58:50;;;;;;;109.63;33.17;;;;;;;-0.93;100.00;102356.00;5068526;28;20441;-72
2021/12/21 08:01:17;;;;;;;96.03;27.85;;;;;;;-0.91;100.00;102368.19;5069402;28;20554;-73
2021/12/21 08:03:44;;;;;;;116.05;30.55;;;;;;;-0.90;100.00;102369.84;5077940;28;20055;-72
2021/12/21 08:06:12;;;;;;;90.05;27.27;;;;;;;-0.91;100.00;102370.13;5081897;28;20139;-72
2021/12/21 08:08:42;;;;;;;86.25;28.20;;;;;;;-0.92;100.00;102371.19;5073220;28;20095;-72
2021/12/21 08:11:28;;;;;;;83.43;27.55;;;;;;;-0.86;100.00;102376.34;5066554;28;20064;-72
2021/12/21 08:13:56;;;;;;;75.13;25.27;;;;;;;-0.88;100.00;102372.28;5066936;28;20052;-72
2021/12/21 08:16:23;;;;;;;89.32;27.33;;;;;;;-0.92;100.00;102377.44;5071057;28;20101;-66
2021/12/21 08:18:50;;;;;;;70.80;25.27;;;;;;;-0.93;100.00;102375.84;5079584;28;20675;-68
2021/12/21 08:21:18;;;;;;;62.58;22.77;;;;;;;-0.89;100.00;102374.19;5072795;28;20163;-71
2021/12/21 08:23:45;;;;;;;68.38;23.20;;;;;;;-0.91;100.00;102368.19;5068001;28;20053;-72
2021/12/21 08:26:12;;;;;;;78.40;23.15;;;;;;;-0.91;100.00;102367.41;5068275;28;21489;-72
2021/12/21 08:28:39;;;;;;;60.17;21.25;;;;;;;-0.93;100.00;102364.16;5068839;28;20065;-71
2021/12/21 08:31:12;;;;;;;60.25;22.95;;;;;;;-0.91;100.00;102368.19;5067463;28;20127;-71
2021/12/21 08:33:40;;;;;;;60.72;22.42;;;;;;;-0.93;100.00;102361.44;5067360;28;20163;-71
2021/12/21 08:36:08;;;;;;;60.42;22.38;;;;;;;-0.96;100.00;102354.66;5069772;28;20059;-71
2021/12/21 08:38:42;;;;;;;56.05;19.50;;;;;;;-0.93;100.00;102370.41;5070508;28;20139;-72
2021/12/21 08:41:09;;;;;;;59.05;20.55;;;;;;;-0.96;100.00;102353.84;5076893;28;20087;-74
2021/12/21 08:43:36;;;;;;;64.80;22.08;;;;;;;-0.97;100.00;102352.22;5068567;28;20106;-71
2021/12/21 08:46:06;;;;;;;62.55;21.20;;;;;;;-0.97;100.00;102363.91;5067877;28;20451;-71
2021/12/21 08:48:33;;;;;;;71.25;24.75;;;;;;;-0.99;100.00;102355.22;5066830;28;20048;-70
2021/12/21 08:51:00;;;;;;;76.78;26.30;;;;;;;-1.03;100.00;102354.16;5067368;28;20332;-71
2021/12/21 08:53:27;;;;;;;76.38;24.17;;;;;;;-0.99;100.00;102365.25;5066427;28;20139;-71
2021/12/21 08:55:55;;;;;;;77.63;24.40;;;;;;;-0.94;100.00;102368.75;5066742;28;20064;-72
2021/12/21 08:58:22;;;;;;;66.97;24.75;;;;;;;-0.90;100.00;102372.56;5075287;28;20052;-71
2021/12/21 09:00:50;;;;;;;73.68;26.85;;;;;;;-0.83;100.00;102375.78;5081231;28;20092;-71
2021/12/21 09:03:17;;;;;;;85.85;29.38;;;;;;;-0.77;100.00;102377.34;5085361;28;20113;-72
2021/12/21 09:05:44;;;;;;;85.63;28.67;;;;;;;-0.72;100.00;102385.47;5068814;28;20076;-73
2021/12/21 09:08:11;;;;;;;78.22;26.60;;;;;;;-0.70;100.00;102382.47;5073554;28;20048;-71
2021/12/21 09:10:41;;;;;;;85.93;27.77;;;;;;;-0.62;100.00;102385.41;5077180;28;20060;-71
2021/12/21 09:13:09;;;;;;;82.35;29.42;;;;;;;-0.56;100.00;102376.13;5071441;28;20449;-72
2021/12/21 09:15:37;;;;;;;88.78;30.85;;;;;;;-0.47;100.00;102379.06;5076598;28;20131;-71
2021/12/21 09:18:06;;;;;;;91.07;30.23;;;;;;;-0.39;100.00;102378.44;5066655;28;20559;-73
2021/12/21 09:20:33;;;;;;;79.10;26.35;;;;;;;-0.31;100.00;102380.53;5065058;28;20052;-71
2021/12/21 09:23:00;;;;;;;96.32;29.08;;;;;;;-0.27;100.00;102379.69;5070264;28;20052;-72
2021/12/21 09:25:28;;;;;;;88.07;29.73;;;;;;;-0.23;100.00;102380.75;5070108;28;20521;-71
2021/12/21 09:27:55;;;;;;;90.22;30.35;;;;;;;-0.27;100.00;102389.78;5066700;28;20048;-73
2021/12/21 09:30:24;;;;;;;93.05;30.30;;;;;;;-0.25;100.00;102379.41;5070130;28;20122;-74
2021/12/21 09:32:51;;;;;;;94.35;30.92;;;;;;;-0.25;100.00;102377.50;5066111;28;20048;-71
2021/12/21 09:35:18;;;;;;;84.05;29.33;;;;;;;-0.25;100.00;102385.69;5068548;28;20101;-74
2021/12/21 09:37:46;;;;;;;91.15;29.38;;;;;;;-0.27;100.00;102384.34;5067544;28;20763;-70
2021/12/21 09:40:17;;;;;;;82.95;29.98;;;;;;;-0.30;100.00;102379.47;5077895;28;20047;-72
2021/12/21 09:42:44;;;;;;;89.32;30.52;;;;;;;-0.19;100.00;102386.44;5072867;28;20509;-71
2021/12/21 09:45:11;;;;;;;97.00;31.45;;;;;;;-0.13;100.00;102374.44;5074950;28;20136;-71
2021/12/21 09:47:38;;;;;;;89.43;31.90;;;;;;;0.03;100.00;102381.31;5069082;28;20056;-71
2021/12/21 09:50:08;;;;;;;97.97;31.95;;;;;;;0.14;100.00;102374.72;5074896;28;20736;-73
2021/12/21 09:52:35;;;;;;;100.50;31.58;;;;;;;0.30;100.00;102378.09;5069816;28;20052;-74
2021/12/21 09:55:06;;;;;;;92.07;32.15;;;;;;;0.34;100.00;102379.13;5066300;28;20049;-71
2021/12/21 09:57:34;;;;;;;94.68;30.67;;;;;;;0.41;100.00;102383.13;5072128;28;20660;-71
2021/12/21 10:00:03;;;;;;;88.97;30.63;;;;;;;0.46;100.00;102377.63;5072105;28;20052;-71
2021/12/21 10:02:33;;;;;;;93.15;31.88;;;;;;;0.49;100.00;102381.66;5070282;28;20086;-71
2021/12/21 10:05:04;;;;;;;83.20;30.02;;;;;;;0.46;100.00;102374.06;5082121;28;20082;-72
2021/12/21 10:07:30;;;;;;;88.68;30.08;;;;;;;0.44;100.00;102377.06;5081730;28;20139;-71
2021/12/21 10:10:06;;;;;;;70.65;26.40;;;;;;;0.36;100.00;102363.28;5071241;28;20056;-71
2021/12/21 10:12:35;;;;;;;82.93;29.45;;;;;;;0.38;100.00;102361.09;5069867;28;20139;-71
2021/12/21 10:15:07;;;;;;;95.43;33.55;;;;;;;0.43;100.00;102371.94;5075782;28;20054;-71
2021/12/21 10:17:35;;;;;;;92.80;31.67;;;;;;;0.51;100.00;102363.97;5077182;28;20058;-72
2021/12/21 10:20:08;;;;;;;95.10;33.63;;;;;;;0.62;100.00;102360.00;5076841;28;20644;-73
2021/12/21 10:22:37;;;;;;;88.25;30.20;;;;;;;0.70;100.00;102353.91;5081563;28;20083;-72
2021/12/21 10:25:07;;;;;;;106.20;35.47;;;;;;;0.85;100.00;102344.72;5071341;28;20157;-72
2021/12/21 10:27:43;;;;;;;88.38;32.00;;;;;;;1.00;100.00;102342.59;5072428;28;20102;-73
2021/12/21 10:30:11;;;;;;;82.88;29.13;;;;;;;1.12;100.00;102351.16;5069690;28;20055;-72
2021/12/21 10:32:50;;;;;;;100.05;31.17;;;;;;;1.21;100.00;102337.66;5068338;28;20052;-70
2021/12/21 10:35:17;;;;;;;90.57;31.08;;;;;;;1.37;100.00;102345.31;5069254;28;20048;-72
2021/12/21 10:37:45;;;;;;;87.10;29.88;;;;;;;1.52;100.00;102344.25;5070854;28;20572;-72
2021/12/21 10:40:22;;;;;;;86.90;31.23;;;;;;;1.65;100.00;102341.56;5079954;28;20050;-71
2021/12/21 10:42:50;;;;;;;88.72;29.42;;;;;;;1.74;100.00;102333.50;5068031;28;20473;-70
2021/12/21 10:45:23;;;;;;;88.88;29.20;;;;;;;1.80;100.00;102335.03;5069781;28;20501;-70
2021/12/21 10:47:50;;;;;;;83.55;28.88;;;;;;;1.96;100.00;102328.22;5070657;28;20144;-72
2021/12/21 10:50:17;;;;;;;85.03;27.45;;;;;;;2.08;100.00;102326.59;5073504;28;20781;-74
2021/12/21 10:52:52;;;;;;;92.28;30.83;;;;;;;2.39;100.00;102324.09;5071415;28;20402;-72
2021/12/21 10:55:33;;;;;;;81.43;26.50;;;;;;;2.80;100.00;102313.91;5073224;28;20048;-70
2021/12/21 10:58:16;;;;;;;87.85;29.48;;;;;;;2.95;99.06;102310.88;5068432;28;20183;-72
2021/12/21 11:00:54;;;;;;;80.35;27.55;;;;;;;3.16;98.94;102316.66;5072324;28;20048;-72
2021/12/21 11:03:45;;;;;;;84.00;28.00;;;;;;;3.53;97.79;102317.13;5079636;28;20135;-72
2021/12/21 11:06:16;;;;;;;82.18;27.48;;;;;;;3.71;94.85;102318.06;5077753;28;20068;-72
2021/12/21 11:08:45;;;;;;;83.55;29.88;;;;;;;4.00;94.88;102308.22;5078314;28;20462;-72
2021/12/21 11:11:35;;;;;;;85.40;28.17;;;;;;;6.41;95.50;102317.81;5089556;28;20339;-73
2021/12/21 11:14:13;;;;;;;80.35;27.52;;;;;;;9.04;89.18;102310.78;5074959;28;20135;-72
2021/12/21 11:16:50;;;;;;;67.95;26.05;;;;;;;10.68;71.63;102310.13;5078027;28;20414;-76
2021/12/21 11:19:20;;;;;;;57.88;21.60;;;;;;;11.14;62.40;102312.75;5081276;28;20127;-72
2021/12/21 11:21:48;;;;;;;60.78;23.30;;;;;;;11.62;62.33;102305.88;5069491;28;20123;-75
2021/12/21 11:24:17;;;;;;;56.00;23.33;;;;;;;11.97;62.66;102312.91;5074042;28;20052;-73
2021/12/21 11:26:46;;;;;;;56.65;22.63;;;;;;;13.20;55.70;102309.38;5077951;28;20048;-75
2021/12/21 11:29:19;;;;;;;52.72;21.98;;;;;;;14.66;52.46;102305.75;5073558;28;20049;-73
2021/12/21 11:31:52;;;;;;;50.33;22.40;;;;;;;15.79;49.64;102304.34;5083090;28;20139;-72
2021/12/21 11:34:21;;;;;;;49.70;22.85;;;;;;;16.35;48.83;102307.22;5080508;28;20123;-72
2021/12/21 11:39:38;;;;;;;59.30;22.60;;;;;;;16.48;45.67;102298.09;5071004;28;20161;-72
2021/12/21 11:42:08;;;;;;;60.92;23.08;;;;;;;15.15;45.04;102278.97;5072263;28;20552;-74
2021/12/21 11:44:56;;;;;;;57.95;24.33;;;;;;;14.01;44.76;102279.69;5079851;28;20135;-74
2021/12/21 11:47:44;;;;;;;69.97;27.58;;;;;;;12.35;46.72;102264.78;5080003;28;20044;-72
2021/12/21 11:50:11;;;;;;;68.55;24.98;;;;;;;11.49;51.67;102276.69;5080976;28;20060;-73
2021/12/21 11:52:47;;;;;;;76.13;28.75;;;;;;;10.59;50.20;102260.47;5080994;28;20044;-73
2021/12/21 11:55:15;;;;;;;80.03;31.30;;;;;;;9.71;52.70;102276.78;5076394;28;20108;-72
2021/12/21 11:57:48;;;;;;;83.43;31.50;;;;;;;8.82;56.07;102269.06;5079161;28;20547;-73
2021/12/21 12:00:19;;;;;;;87.15;29.98;;;;;;;8.26;57.68;102265.31;5068296;28;20044;-72
2021/12/21 12:02:47;;;;;;;95.68;32.72;;;;;;;7.69;59.44;102264.50;5077516;28;20535;-73
2021/12/21 12:05:20;;;;;;;102.25;33.05;;;;;;;7.33;61.19;102264.41;5071766;28;20070;-73
2021/12/21 12:08:08;;;;;;;104.63;35.10;;;;;;;6.87;63.85;102264.63;5077545;28;20131;-72
2021/12/21 12:10:46;;;;;;;108.13;34.22;;;;;;;6.46;65.28;102267.31;5069244;28;20052;-72
2021/12/21 12:13:24;;;;;;;103.78;35.20;;;;;;;5.99;67.44;102257.53;5072398;28;20553;-72
2021/12/21 12:15:57;;;;;;;104.63;33.92;;;;;;;6.18;70.87;102255.19;5084267;28;20131;-72
2021/12/21 12:18:33;;;;;;;117.35;36.05;;;;;;;7.80;68.71;102260.19;5075975;28;20045;-72
2021/12/21 12:21:25;;;;;;;100.10;31.33;;;;;;;9.61;61.58;102256.00;5079581;28;20056;-73